sensor_id;sensor_type;location;lat;lon;timestamp;P1;durP1;ratioP1;P2;durP2;ratioP2
53977;SDS011;39886;47.984;-1.586;2022-07-23T00:01:02;1.70;;;1.60;;
53977;SDS011;39886;47.984;-1.586;2022-07-23T00:03:28;1.60;;;1.50;;
53977;SDS011;39886;47.984;-1.586;2022-07-23T00:05:54;1.70;;;1.52;;
53977;SDS011;39886;47.984;-1.586;2022-07-23T00:08:20;1.63;;;1.50;;
53977;SDS011;39886;47.984;-1.586;2022-07-23T00:10:45;1.85;;;1.58;;
53977;SDS011;39886;47.984;-1.586;2022-07-23T00:13:11;1.60;;;1.40;;
53977;SDS011;39886;47.984;-1.586;2022-07-23T00:15:37;1.80;;;1.65;;
53977;SDS011;39886;47.984;-1.586;2022-07-23T00:18:03;1.80;;;1.65;;
53977;SDS011;39886;47.984;-1.586;2022-07-23T00:20:29;1.50;;;1.40;;
53977;SDS011;39886;47.984;-1.586;2022-07-23T00:22:55;1.58;;;1.48;;
53977;SDS011;39886;47.984;-1.586;2022-07-23T00:25:21;1.40;;;1.30;;
53977;SDS011;39886;47.984;-1.586;2022-07-23T00:27:48;1.73;;;1.60;;
53977;SDS011;39886;47.984;-1.586;2022-07-23T00:30:14;1.70;;;1.60;;
53977;SDS011;39886;47.984;-1.586;2022-07-23T00:32:49;1.83;;;1.50;;
53977;SDS011;39886;47.984;-1.586;2022-07-23T00:35:21;1.70;;;1.60;;
53977;SDS011;39886;47.984;-1.586;2022-07-23T00:37:48;1.50;;;1.40;;
53977;SDS011;39886;47.984;-1.586;2022-07-23T00:40:14;1.70;;;1.60;;
53977;SDS011;39886;47.984;-1.586;2022-07-23T00:42:40;1.55;;;1.42;;
53977;SDS011;39886;47.984;-1.586;2022-07-23T00:45:06;1.58;;;1.48;;
53977;SDS011;39886;47.984;-1.586;2022-07-23T00:47:32;1.65;;;1.48;;
53977;SDS011;39886;47.984;-1.586;2022-07-23T00:49:58;3.30;;;1.58;;
53977;SDS011;39886;47.984;-1.586;2022-07-23T00:52:24;1.75;;;1.58;;
53977;SDS011;39886;47.984;-1.586;2022-07-23T00:54:50;1.65;;;1.55;;
53977;SDS011;39886;47.984;-1.586;2022-07-23T00:57:16;2.40;;;1.52;;
53977;SDS011;39886;47.984;-1.586;2022-07-23T00:59:43;2.25;;;1.58;;
53977;SDS011;39886;47.984;-1.586;2022-07-23T01:02:09;1.75;;;1.60;;
53977;SDS011;39886;47.984;-1.586;2022-07-23T01:04:35;1.73;;;1.38;;
53977;SDS011;39886;47.984;-1.586;2022-07-23T01:07:01;1.60;;;1.50;;
53977;SDS011;39886;47.984;-1.586;2022-07-23T01:09:27;2.25;;;1.65;;
53977;SDS011;39886;47.984;-1.586;2022-07-23T01:11:56;1.60;;;1.50;;
53977;SDS011;39886;47.984;-1.586;2022-07-23T01:14:22;1.98;;;1.42;;
53977;SDS011;39886;47.984;-1.586;2022-07-23T01:16:48;2.42;;;1.80;;
53977;SDS011;39886;47.984;-1.586;2022-07-23T01:19:15;1.63;;;1.48;;
53977;SDS011;39886;47.984;-1.586;2022-07-23T01:21:42;1.40;;;1.30;;
53977;SDS011;39886;47.984;-1.586;2022-07-23T01:24:10;1.92;;;1.50;;
53977;SDS011;39886;47.984;-1.586;2022-07-23T01:26:37;1.85;;;1.42;;
53977;SDS011;39886;47.984;-1.586;2022-07-23T01:29:04;1.70;;;1.60;;
53977;SDS011;39886;47.984;-1.586;2022-07-23T01:31:30;1.55;;;1.45;;
53977;SDS011;39886;47.984;-1.586;2022-07-23T01:33:56;1.63;;;1.25;;
53977;SDS011;39886;47.984;-1.586;2022-07-23T01:36:22;1.83;;;1.55;;
53977;SDS011;39886;47.984;-1.586;2022-07-23T01:38:48;1.55;;;1.40;;
53977;SDS011;39886;47.984;-1.586;2022-07-23T01:41:14;1.48;;;1.38;;
53977;SDS011;39886;47.984;-1.586;2022-07-23T01:43:39;1.55;;;1.45;;
53977;SDS011;39886;47.984;-1.586;2022-07-23T01:46:05;2.17;;;1.45;;
53977;SDS011;39886;47.984;-1.586;2022-07-23T01:48:31;1.30;;;1.20;;
53977;SDS011;39886;47.984;-1.586;2022-07-23T01:50:57;1.60;;;1.50;;
53977;SDS011;39886;47.984;-1.586;2022-07-23T01:53:22;1.60;;;1.40;;
53977;SDS011;39886;47.984;-1.586;2022-07-23T01:55:48;1.48;;;1.23;;
53977;SDS011;39886;47.984;-1.586;2022-07-23T01:58:14;1.55;;;1.30;;
53977;SDS011;39886;47.984;-1.586;2022-07-23T02:00:40;1.35;;;1.30;;
53977;SDS011;39886;47.984;-1.586;2022-07-23T02:03:05;1.30;;;1.20;;
53977;SDS011;39886;47.984;-1.586;2022-07-23T02:05:31;1.30;;;1.20;;
53977;SDS011;39886;47.984;-1.586;2022-07-23T02:07:58;1.85;;;1.23;;
53977;SDS011;39886;47.984;-1.586;2022-07-23T02:10:24;1.50;;;1.27;;
53977;SDS011;39886;47.984;-1.586;2022-07-23T02:12:51;1.65;;;1.30;;
53977;SDS011;39886;47.984;-1.586;2022-07-23T02:15:16;1.30;;;1.20;;
53977;SDS011;39886;47.984;-1.586;2022-07-23T02:17:42;2.40;;;1.40;;
53977;SDS011;39886;47.984;-1.586;2022-07-23T02:20:08;2.10;;;1.58;;
53977;SDS011;39886;47.984;-1.586;2022-07-23T02:22:35;1.55;;;1.40;;
53977;SDS011;39886;47.984;-1.586;2022-07-23T02:25:01;1.88;;;1.40;;
53977;SDS011;39886;47.984;-1.586;2022-07-23T02:27:28;1.65;;;1.20;;
53977;SDS011;39886;47.984;-1.586;2022-07-23T02:29:54;1.40;;;1.30;;
53977;SDS011;39886;47.984;-1.586;2022-07-23T02:32:20;2.13;;;1.30;;
53977;SDS011;39886;47.984;-1.586;2022-07-23T02:34:48;1.55;;;1.45;;
53977;SDS011;39886;47.984;-1.586;2022-07-23T02:37:14;1.50;;;1.30;;
53977;SDS011;39886;47.984;-1.586;2022-07-23T02:39:40;2.00;;;1.55;;
53977;SDS011;39886;47.984;-1.586;2022-07-23T02:42:06;1.48;;;1.23;;
53977;SDS011;39886;47.984;-1.586;2022-07-23T02:44:32;1.50;;;1.40;;
53977;SDS011;39886;47.984;-1.586;2022-07-23T02:46:58;2.08;;;1.77;;
53977;SDS011;39886;47.984;-1.586;2022-07-23T02:49:24;1.67;;;1.35;;
53977;SDS011;39886;47.984;-1.586;2022-07-23T02:51:50;1.48;;;1.10;;
53977;SDS011;39886;47.984;-1.586;2022-07-23T02:54:16;1.08;;;1.08;;
53977;SDS011;39886;47.984;-1.586;2022-07-23T02:56:42;1.40;;;1.30;;
53977;SDS011;39886;47.984;-1.586;2022-07-23T02:59:07;1.80;;;1.42;;
53977;SDS011;39886;47.984;-1.586;2022-07-23T03:01:33;2.10;;;1.40;;
53977;SDS011;39886;47.984;-1.586;2022-07-23T03:03:59;1.38;;;1.23;;
53977;SDS011;39886;47.984;-1.586;2022-07-23T03:06:25;1.27;;;1.17;;
53977;SDS011;39886;47.984;-1.586;2022-07-23T03:08:51;1.25;;;1.20;;
53977;SDS011;39886;47.984;-1.586;2022-07-23T03:11:17;1.30;;;1.20;;
53977;SDS011;39886;47.984;-1.586;2022-07-23T03:13:43;1.67;;;1.40;;
53977;SDS011;39886;47.984;-1.586;2022-07-23T03:16:08;2.05;;;1.38;;
53977;SDS011;39886;47.984;-1.586;2022-07-23T03:18:34;1.25;;;1.15;;
53977;SDS011;39886;47.984;-1.586;2022-07-23T03:21:00;1.75;;;1.50;;
53977;SDS011;39886;47.984;-1.586;2022-07-23T03:23:26;1.40;;;1.30;;
53977;SDS011;39886;47.984;-1.586;2022-07-23T03:25:52;2.42;;;1.40;;
53977;SDS011;39886;47.984;-1.586;2022-07-23T03:28:18;1.70;;;1.23;;
53977;SDS011;39886;47.984;-1.586;2022-07-23T03:30:44;1.67;;;1.17;;
53977;SDS011;39886;47.984;-1.586;2022-07-23T03:33:13;1.38;;;1.27;;
53977;SDS011;39886;47.984;-1.586;2022-07-23T03:35:41;1.95;;;1.55;;
53977;SDS011;39886;47.984;-1.586;2022-07-23T03:38:07;1.10;;;1.00;;
53977;SDS011;39886;47.984;-1.586;2022-07-23T03:40:33;1.23;;;1.13;;
53977;SDS011;39886;47.984;-1.586;2022-07-23T03:42:59;1.30;;;1.10;;
53977;SDS011;39886;47.984;-1.586;2022-07-23T03:45:24;1.80;;;1.25;;
53977;SDS011;39886;47.984;-1.586;2022-07-23T03:47:50;1.17;;;1.10;;
53977;SDS011;39886;47.984;-1.586;2022-07-23T03:50:16;1.80;;;1.48;;
53977;SDS011;39886;47.984;-1.586;2022-07-23T03:52:42;1.42;;;1.23;;
53977;SDS011;39886;47.984;-1.586;2022-07-23T03:55:08;1.20;;;1.20;;
53977;SDS011;39886;47.984;-1.586;2022-07-23T03:57:34;1.13;;;1.10;;
53977;SDS011;39886;47.984;-1.586;2022-07-23T03:59:59;1.10;;;1.10;;
53977;SDS011;39886;47.984;-1.586;2022-07-23T04:02:25;1.33;;;1.23;;
53977;SDS011;39886;47.984;-1.586;2022-07-23T04:04:51;1.60;;;1.30;;
53977;SDS011;39886;47.984;-1.586;2022-07-23T04:07:17;1.80;;;1.20;;
53977;SDS011;39886;47.984;-1.586;2022-07-23T04:09:43;1.40;;;1.30;;
53977;SDS011;39886;47.984;-1.586;2022-07-23T04:12:09;1.35;;;1.25;;
53977;SDS011;39886;47.984;-1.586;2022-07-23T04:14:35;1.38;;;1.27;;
53977;SDS011;39886;47.984;-1.586;2022-07-23T04:17:01;1.38;;;1.27;;
53977;SDS011;39886;47.984;-1.586;2022-07-23T04:19:27;1.30;;;1.20;;
53977;SDS011;39886;47.984;-1.586;2022-07-23T04:21:55;1.77;;;1.20;;
53977;SDS011;39886;47.984;-1.586;2022-07-23T04:24:21;1.10;;;1.00;;
53977;SDS011;39886;47.984;-1.586;2022-07-23T04:26:47;1.55;;;1.42;;
53977;SDS011;39886;47.984;-1.586;2022-07-23T04:29:12;1.65;;;1.40;;
53977;SDS011;39886;47.984;-1.586;2022-07-23T04:31:38;1.48;;;1.25;;
53977;SDS011;39886;47.984;-1.586;2022-07-23T04:34:04;1.30;;;1.20;;
53977;SDS011;39886;47.984;-1.586;2022-07-23T04:36:30;1.77;;;1.23;;
53977;SDS011;39886;47.984;-1.586;2022-07-23T04:38:55;1.42;;;1.30;;
53977;SDS011;39886;47.984;-1.586;2022-07-23T04:41:21;1.40;;;1.30;;
53977;SDS011;39886;47.984;-1.586;2022-07-23T04:43:47;2.58;;;1.40;;
53977;SDS011;39886;47.984;-1.586;2022-07-23T04:46:13;1.42;;;1.33;;
53977;SDS011;39886;47.984;-1.586;2022-07-23T04:48:39;1.65;;;1.02;;
53977;SDS011;39886;47.984;-1.586;2022-07-23T04:51:05;1.10;;;1.10;;
53977;SDS011;39886;47.984;-1.586;2022-07-23T04:53:31;1.50;;;1.40;;
53977;SDS011;39886;47.984;-1.586;2022-07-23T04:55:57;2.20;;;1.30;;
53977;SDS011;39886;47.984;-1.586;2022-07-23T04:58:22;1.65;;;1.17;;
53977;SDS011;39886;47.984;-1.586;2022-07-23T05:00:48;1.15;;;1.13;;
53977;SDS011;39886;47.984;-1.586;2022-07-23T05:03:14;1.30;;;1.20;;
53977;SDS011;39886;47.984;-1.586;2022-07-23T05:05:40;1.83;;;1.30;;
53977;SDS011;39886;47.984;-1.586;2022-07-23T05:08:05;1.25;;;1.15;;
53977;SDS011;39886;47.984;-1.586;2022-07-23T05:10:31;1.42;;;1.30;;
53977;SDS011;39886;47.984;-1.586;2022-07-23T05:12:57;1.52;;;1.13;;
53977;SDS011;39886;47.984;-1.586;2022-07-23T05:15:23;1.42;;;1.27;;
53977;SDS011;39886;47.984;-1.586;2022-07-23T05:17:48;1.27;;;1.23;;
53977;SDS011;39886;47.984;-1.586;2022-07-23T05:20:14;1.30;;;1.20;;
53977;SDS011;39886;47.984;-1.586;2022-07-23T05:22:40;1.45;;;1.35;;
53977;SDS011;39886;47.984;-1.586;2022-07-23T05:25:06;1.75;;;1.40;;
53977;SDS011;39886;47.984;-1.586;2022-07-23T05:27:33;1.25;;;1.15;;
53977;SDS011;39886;47.984;-1.586;2022-07-23T05:29:59;1.08;;;1.08;;
53977;SDS011;39886;47.984;-1.586;2022-07-23T05:32:25;2.05;;;1.40;;
53977;SDS011;39886;47.984;-1.586;2022-07-23T05:34:50;1.30;;;1.20;;
53977;SDS011;39886;47.984;-1.586;2022-07-23T05:37:16;1.08;;;1.08;;
53977;SDS011;39886;47.984;-1.586;2022-07-23T05:39:42;1.63;;;1.23;;
53977;SDS011;39886;47.984;-1.586;2022-07-23T05:42:08;1.17;;;1.10;;
53977;SDS011;39886;47.984;-1.586;2022-07-23T05:44:34;1.20;;;1.10;;
53977;SDS011;39886;47.984;-1.586;2022-07-23T05:46:59;1.30;;;1.20;;
53977;SDS011;39886;47.984;-1.586;2022-07-23T05:49:25;1.20;;;1.10;;
53977;SDS011;39886;47.984;-1.586;2022-07-23T05:51:51;1.42;;;1.10;;
53977;SDS011;39886;47.984;-1.586;2022-07-23T05:54:17;1.58;;;1.20;;
53977;SDS011;39886;47.984;-1.586;2022-07-23T05:56:42;1.27;;;1.17;;
53977;SDS011;39886;47.984;-1.586;2022-07-23T05:59:08;1.17;;;1.10;;
53977;SDS011;39886;47.984;-1.586;2022-07-23T06:01:34;1.10;;;1.05;;
53977;SDS011;39886;47.984;-1.586;2022-07-23T06:04:00;1.25;;;1.17;;
53977;SDS011;39886;47.984;-1.586;2022-07-23T06:06:26;2.30;;;1.30;;
53977;SDS011;39886;47.984;-1.586;2022-07-23T06:08:51;1.20;;;1.10;;
53977;SDS011;39886;47.984;-1.586;2022-07-23T06:11:17;1.20;;;1.10;;
53977;SDS011;39886;47.984;-1.586;2022-07-23T06:13:43;1.10;;;1.00;;
53977;SDS011;39886;47.984;-1.586;2022-07-23T06:16:09;1.30;;;1.20;;
53977;SDS011;39886;47.984;-1.586;2022-07-23T06:18:34;1.45;;;1.35;;
53977;SDS011;39886;47.984;-1.586;2022-07-23T06:21:00;1.20;;;1.10;;
53977;SDS011;39886;47.984;-1.586;2022-07-23T06:23:26;1.30;;;1.20;;
53977;SDS011;39886;47.984;-1.586;2022-07-23T06:25:52;1.15;;;0.98;;
53977;SDS011;39886;47.984;-1.586;2022-07-23T06:28:17;1.40;;;1.30;;
53977;SDS011;39886;47.984;-1.586;2022-07-23T06:30:43;1.10;;;1.00;;
53977;SDS011;39886;47.984;-1.586;2022-07-23T06:33:09;0.90;;;0.90;;
53977;SDS011;39886;47.984;-1.586;2022-07-23T06:35:36;0.93;;;0.93;;
53977;SDS011;39886;47.984;-1.586;2022-07-23T06:38:02;1.13;;;1.02;;
53977;SDS011;39886;47.984;-1.586;2022-07-23T06:40:28;1.15;;;1.10;;
53977;SDS011;39886;47.984;-1.586;2022-07-23T06:42:53;1.15;;;1.10;;
53977;SDS011;39886;47.984;-1.586;2022-07-23T06:45:19;1.10;;;1.10;;
53977;SDS011;39886;47.984;-1.586;2022-07-23T06:47:45;1.08;;;0.98;;
53977;SDS011;39886;47.984;-1.586;2022-07-23T06:50:11;1.63;;;1.17;;
53977;SDS011;39886;47.984;-1.586;2022-07-23T06:52:36;1.58;;;1.10;;
53977;SDS011;39886;47.984;-1.586;2022-07-23T06:55:02;1.52;;;1.42;;
53977;SDS011;39886;47.984;-1.586;2022-07-23T06:57:28;1.00;;;1.00;;
53977;SDS011;39886;47.984;-1.586;2022-07-23T06:59:54;1.75;;;1.27;;
53977;SDS011;39886;47.984;-1.586;2022-07-23T07:02:20;1.00;;;0.90;;
53977;SDS011;39886;47.984;-1.586;2022-07-23T07:04:45;1.17;;;1.08;;
53977;SDS011;39886;47.984;-1.586;2022-07-23T07:07:11;0.95;;;0.95;;
53977;SDS011;39886;47.984;-1.586;2022-07-23T07:09:37;1.10;;;1.00;;
53977;SDS011;39886;47.984;-1.586;2022-07-23T07:12:03;0.82;;;0.82;;
53977;SDS011;39886;47.984;-1.586;2022-07-23T07:14:29;1.00;;;1.00;;
53977;SDS011;39886;47.984;-1.586;2022-07-23T07:16:55;1.17;;;1.02;;
53977;SDS011;39886;47.984;-1.586;2022-07-23T07:19:21;1.00;;;1.00;;
53977;SDS011;39886;47.984;-1.586;2022-07-23T07:21:47;1.20;;;1.10;;
53977;SDS011;39886;47.984;-1.586;2022-07-23T07:24:12;0.90;;;0.90;;
53977;SDS011;39886;47.984;-1.586;2022-07-23T07:26:38;1.05;;;1.05;;
53977;SDS011;39886;47.984;-1.586;2022-07-23T07:29:04;1.33;;;1.00;;
53977;SDS011;39886;47.984;-1.586;2022-07-23T07:31:30;1.35;;;1.10;;
53977;SDS011;39886;47.984;-1.586;2022-07-23T07:33:56;1.80;;;1.00;;
53977;SDS011;39886;47.984;-1.586;2022-07-23T07:36:23;0.98;;;0.93;;
53977;SDS011;39886;47.984;-1.586;2022-07-23T07:38:49;1.60;;;1.20;;
53977;SDS011;39886;47.984;-1.586;2022-07-23T07:41:16;0.98;;;0.90;;
53977;SDS011;39886;47.984;-1.586;2022-07-23T07:43:41;1.10;;;1.00;;
53977;SDS011;39886;47.984;-1.586;2022-07-23T07:46:07;1.00;;;1.00;;
53977;SDS011;39886;47.984;-1.586;2022-07-23T07:48:38;1.48;;;1.05;;
53977;SDS011;39886;47.984;-1.586;2022-07-23T07:51:04;1.08;;;0.85;;
53977;SDS011;39886;47.984;-1.586;2022-07-23T07:53:30;1.00;;;1.00;;
53977;SDS011;39886;47.984;-1.586;2022-07-23T07:55:56;0.95;;;0.95;;
53977;SDS011;39886;47.984;-1.586;2022-07-23T07:58:22;0.85;;;0.85;;
53977;SDS011;39886;47.984;-1.586;2022-07-23T08:00:47;1.55;;;1.00;;
53977;SDS011;39886;47.984;-1.586;2022-07-23T08:03:13;0.80;;;0.80;;
53977;SDS011;39886;47.984;-1.586;2022-07-23T08:05:39;1.27;;;1.17;;
53977;SDS011;39886;47.984;-1.586;2022-07-23T08:08:05;1.08;;;0.98;;
53977;SDS011;39886;47.984;-1.586;2022-07-23T08:10:30;0.80;;;0.80;;
53977;SDS011;39886;47.984;-1.586;2022-07-23T08:12:57;1.10;;;1.10;;
53977;SDS011;39886;47.984;-1.586;2022-07-23T08:15:24;1.00;;;1.00;;
53977;SDS011;39886;47.984;-1.586;2022-07-23T08:17:51;1.45;;;0.82;;
53977;SDS011;39886;47.984;-1.586;2022-07-23T08:20:17;1.25;;;1.08;;
53977;SDS011;39886;47.984;-1.586;2022-07-23T08:22:54;1.40;;;1.00;;
53977;SDS011;39886;47.984;-1.586;2022-07-23T08:25:23;0.90;;;0.90;;
53977;SDS011;39886;47.984;-1.586;2022-07-23T08:27:50;1.00;;;1.00;;
53977;SDS011;39886;47.984;-1.586;2022-07-23T08:30:16;1.40;;;1.02;;
53977;SDS011;39886;47.984;-1.586;2022-07-23T08:32:50;1.00;;;1.00;;
53977;SDS011;39886;47.984;-1.586;2022-07-23T08:35:33;1.35;;;1.02;;
53977;SDS011;39886;47.984;-1.586;2022-07-23T08:38:01;1.00;;;1.00;;
53977;SDS011;39886;47.984;-1.586;2022-07-23T08:40:29;0.75;;;0.75;;
53977;SDS011;39886;47.984;-1.586;2022-07-23T08:42:56;1.25;;;1.10;;
53977;SDS011;39886;47.984;-1.586;2022-07-23T08:45:23;1.05;;;1.00;;
53977;SDS011;39886;47.984;-1.586;2022-07-23T08:47:50;0.90;;;0.82;;
53977;SDS011;39886;47.984;-1.586;2022-07-23T08:50:18;0.70;;;0.70;;
53977;SDS011;39886;47.984;-1.586;2022-07-23T08:52:44;0.90;;;0.90;;
53977;SDS011;39886;47.984;-1.586;2022-07-23T08:55:10;1.73;;;0.80;;
53977;SDS011;39886;47.984;-1.586;2022-07-23T08:57:36;0.93;;;0.82;;
53977;SDS011;39886;47.984;-1.586;2022-07-23T09:00:03;1.58;;;1.02;;
53977;SDS011;39886;47.984;-1.586;2022-07-23T09:02:30;0.90;;;0.90;;
53977;SDS011;39886;47.984;-1.586;2022-07-23T09:04:55;1.10;;;0.90;;
53977;SDS011;39886;47.984;-1.586;2022-07-23T09:07:21;0.80;;;0.80;;
53977;SDS011;39886;47.984;-1.586;2022-07-23T09:09:47;0.90;;;0.90;;
53977;SDS011;39886;47.984;-1.586;2022-07-23T09:12:31;1.00;;;0.90;;
53977;SDS011;39886;47.984;-1.586;2022-07-23T09:14:57;0.70;;;0.70;;
53977;SDS011;39886;47.984;-1.586;2022-07-23T09:17:39;0.95;;;0.90;;
53977;SDS011;39886;47.984;-1.586;2022-07-23T09:20:14;1.20;;;1.10;;
53977;SDS011;39886;47.984;-1.586;2022-07-23T09:22:47;0.98;;;0.88;;
53977;SDS011;39886;47.984;-1.586;2022-07-23T09:25:17;1.45;;;1.17;;
53977;SDS011;39886;47.984;-1.586;2022-07-23T09:30:16;0.75;;;0.75;;
53977;SDS011;39886;47.984;-1.586;2022-07-23T09:32:42;1.48;;;1.13;;
53977;SDS011;39886;47.984;-1.586;2022-07-23T09:35:08;0.90;;;0.90;;
53977;SDS011;39886;47.984;-1.586;2022-07-23T09:37:33;0.80;;;0.80;;
53977;SDS011;39886;47.984;-1.586;2022-07-23T09:40:03;1.00;;;0.93;;
53977;SDS011;39886;47.984;-1.586;2022-07-23T09:42:34;1.25;;;1.15;;
53977;SDS011;39886;47.984;-1.586;2022-07-23T09:45:00;0.85;;;0.85;;
53977;SDS011;39886;47.984;-1.586;2022-07-23T09:47:27;1.30;;;1.20;;
53977;SDS011;39886;47.984;-1.586;2022-07-23T09:52:35;2.15;;;1.00;;
53977;SDS011;39886;47.984;-1.586;2022-07-23T09:55:07;1.55;;;0.95;;
53977;SDS011;39886;47.984;-1.586;2022-07-23T09:57:33;0.98;;;0.90;;
53977;SDS011;39886;47.984;-1.586;2022-07-23T10:00:00;0.98;;;0.90;;
53977;SDS011;39886;47.984;-1.586;2022-07-23T10:02:29;1.38;;;0.95;;
53977;SDS011;39886;47.984;-1.586;2022-07-23T10:04:57;0.80;;;0.75;;
53977;SDS011;39886;47.984;-1.586;2022-07-23T10:07:25;0.70;;;0.70;;
53977;SDS011;39886;47.984;-1.586;2022-07-23T10:09:52;0.90;;;0.90;;
53977;SDS011;39886;47.984;-1.586;2022-07-23T10:12:18;1.50;;;1.30;;
53977;SDS011;39886;47.984;-1.586;2022-07-23T10:14:47;0.80;;;0.80;;
53977;SDS011;39886;47.984;-1.586;2022-07-23T10:17:14;0.80;;;0.80;;
53977;SDS011;39886;47.984;-1.586;2022-07-23T10:19:40;1.10;;;1.00;;
53977;SDS011;39886;47.984;-1.586;2022-07-23T10:22:08;0.90;;;0.90;;
53977;SDS011;39886;47.984;-1.586;2022-07-23T10:24:49;0.90;;;0.90;;
53977;SDS011;39886;47.984;-1.586;2022-07-23T10:39:04;1.40;;;0.88;;
53977;SDS011;39886;47.984;-1.586;2022-07-23T10:41:37;0.88;;;0.85;;
53977;SDS011;39886;47.984;-1.586;2022-07-23T10:44:10;1.20;;;0.88;;
53977;SDS011;39886;47.984;-1.586;2022-07-23T10:49:37;2.33;;;0.80;;
53977;SDS011;39886;47.984;-1.586;2022-07-23T10:54:39;0.80;;;0.80;;
53977;SDS011;39886;47.984;-1.586;2022-07-23T10:57:09;1.23;;;1.05;;
53977;SDS011;39886;47.984;-1.586;2022-07-23T11:02:46;0.75;;;0.75;;
53977;SDS011;39886;47.984;-1.586;2022-07-23T11:05:15;0.75;;;0.73;;
53977;SDS011;39886;47.984;-1.586;2022-07-23T11:24:06;0.98;;;0.90;;
53977;SDS011;39886;47.984;-1.586;2022-07-23T11:34:27;1.08;;;0.75;;
53977;SDS011;39886;47.984;-1.586;2022-07-23T11:37:03;0.80;;;0.80;;
53977;SDS011;39886;47.984;-1.586;2022-07-23T11:39:31;1.52;;;0.95;;
53977;SDS011;39886;47.984;-1.586;2022-07-23T11:41:57;0.85;;;0.85;;
53977;SDS011;39886;47.984;-1.586;2022-07-23T11:44:28;0.80;;;0.80;;
53977;SDS011;39886;47.984;-1.586;2022-07-23T11:46:59;0.88;;;0.88;;
53977;SDS011;39886;47.984;-1.586;2022-07-23T11:49:26;0.98;;;0.95;;
53977;SDS011;39886;47.984;-1.586;2022-07-23T11:52:03;0.82;;;0.82;;
53977;SDS011;39886;47.984;-1.586;2022-07-23T11:54:33;0.50;;;0.50;;
53977;SDS011;39886;47.984;-1.586;2022-07-23T11:57:01;0.80;;;0.80;;
53977;SDS011;39886;47.984;-1.586;2022-07-23T11:59:29;0.70;;;0.70;;
53977;SDS011;39886;47.984;-1.586;2022-07-23T12:02:03;0.80;;;0.80;;
53977;SDS011;39886;47.984;-1.586;2022-07-23T12:04:45;0.80;;;0.80;;
53977;SDS011;39886;47.984;-1.586;2022-07-23T12:07:32;0.80;;;0.80;;
53977;SDS011;39886;47.984;-1.586;2022-07-23T12:15:14;1.45;;;0.80;;
53977;SDS011;39886;47.984;-1.586;2022-07-23T12:17:42;0.93;;;0.85;;
53977;SDS011;39886;47.984;-1.586;2022-07-23T12:20:14;0.80;;;0.80;;
53977;SDS011;39886;47.984;-1.586;2022-07-23T12:22:44;0.80;;;0.80;;
53977;SDS011;39886;47.984;-1.586;2022-07-23T12:25:12;0.82;;;0.80;;
53977;SDS011;39886;47.984;-1.586;2022-07-23T12:27:43;0.70;;;0.70;;
53977;SDS011;39886;47.984;-1.586;2022-07-23T12:30:19;1.10;;;0.93;;
53977;SDS011;39886;47.984;-1.586;2022-07-23T12:32:49;1.30;;;0.90;;
53977;SDS011;39886;47.984;-1.586;2022-07-23T12:35:16;0.73;;;0.73;;
53977;SDS011;39886;47.984;-1.586;2022-07-23T12:37:44;0.93;;;0.80;;
53977;SDS011;39886;47.984;-1.586;2022-07-23T12:42:58;0.80;;;0.80;;
53977;SDS011;39886;47.984;-1.586;2022-07-23T12:45:27;0.80;;;0.80;;
53977;SDS011;39886;47.984;-1.586;2022-07-23T12:48:06;1.73;;;0.80;;
53977;SDS011;39886;47.984;-1.586;2022-07-23T12:50:36;0.90;;;0.90;;
53977;SDS011;39886;47.984;-1.586;2022-07-23T12:55:35;1.40;;;0.90;;
53977;SDS011;39886;47.984;-1.586;2022-07-23T12:58:08;0.88;;;0.80;;
53977;SDS011;39886;47.984;-1.586;2022-07-23T13:00:51;0.65;;;0.65;;
53977;SDS011;39886;47.984;-1.586;2022-07-23T13:05:53;0.90;;;0.90;;
53977;SDS011;39886;47.984;-1.586;2022-07-23T13:08:20;1.70;;;0.70;;
53977;SDS011;39886;47.984;-1.586;2022-07-23T13:10:47;0.63;;;0.63;;
53977;SDS011;39886;47.984;-1.586;2022-07-23T13:13:14;0.90;;;0.90;;
53977;SDS011;39886;47.984;-1.586;2022-07-23T13:15:41;0.88;;;0.70;;
53977;SDS011;39886;47.984;-1.586;2022-07-23T13:18:08;0.60;;;0.60;;
53977;SDS011;39886;47.984;-1.586;2022-07-23T13:20:34;0.80;;;0.80;;
53977;SDS011;39886;47.984;-1.586;2022-07-23T13:23:01;0.65;;;0.65;;
53977;SDS011;39886;47.984;-1.586;2022-07-23T13:25:27;1.00;;;0.90;;
53977;SDS011;39886;47.984;-1.586;2022-07-23T13:27:53;0.90;;;0.80;;
53977;SDS011;39886;47.984;-1.586;2022-07-23T13:30:18;0.85;;;0.85;;
53977;SDS011;39886;47.984;-1.586;2022-07-23T13:32:44;1.00;;;1.00;;
53977;SDS011;39886;47.984;-1.586;2022-07-23T13:35:10;0.80;;;0.80;;
53977;SDS011;39886;47.984;-1.586;2022-07-23T13:37:37;0.80;;;0.80;;
53977;SDS011;39886;47.984;-1.586;2022-07-23T13:40:03;0.90;;;0.90;;
53977;SDS011;39886;47.984;-1.586;2022-07-23T13:42:29;0.90;;;0.90;;
53977;SDS011;39886;47.984;-1.586;2022-07-23T13:44:55;0.70;;;0.70;;
53977;SDS011;39886;47.984;-1.586;2022-07-23T13:47:20;0.70;;;0.70;;
53977;SDS011;39886;47.984;-1.586;2022-07-23T13:49:46;0.70;;;0.70;;
53977;SDS011;39886;47.984;-1.586;2022-07-23T13:52:12;1.45;;;0.80;;
53977;SDS011;39886;47.984;-1.586;2022-07-23T13:54:38;0.68;;;0.68;;
53977;SDS011;39886;47.984;-1.586;2022-07-23T13:57:03;0.80;;;0.80;;
53977;SDS011;39886;47.984;-1.586;2022-07-23T13:59:29;1.42;;;0.93;;
53977;SDS011;39886;47.984;-1.586;2022-07-23T14:01:55;0.80;;;0.80;;
53977;SDS011;39886;47.984;-1.586;2022-07-23T14:04:21;0.70;;;0.70;;
53977;SDS011;39886;47.984;-1.586;2022-07-23T14:06:47;0.80;;;0.80;;
53977;SDS011;39886;47.984;-1.586;2022-07-23T14:09:13;0.80;;;0.70;;
53977;SDS011;39886;47.984;-1.586;2022-07-23T14:11:39;0.82;;;0.82;;
53977;SDS011;39886;47.984;-1.586;2022-07-23T14:14:05;0.77;;;0.77;;
53977;SDS011;39886;47.984;-1.586;2022-07-23T14:16:30;0.90;;;0.90;;
53977;SDS011;39886;47.984;-1.586;2022-07-23T14:18:56;0.70;;;0.70;;
53977;SDS011;39886;47.984;-1.586;2022-07-23T14:21:22;0.85;;;0.70;;
53977;SDS011;39886;47.984;-1.586;2022-07-23T14:23:47;0.70;;;0.70;;
53977;SDS011;39886;47.984;-1.586;2022-07-23T14:26:13;0.98;;;0.90;;
53977;SDS011;39886;47.984;-1.586;2022-07-23T14:28:39;0.73;;;0.73;;
53977;SDS011;39886;47.984;-1.586;2022-07-23T14:31:05;0.98;;;0.98;;
53977;SDS011;39886;47.984;-1.586;2022-07-23T14:33:30;0.63;;;0.63;;
53977;SDS011;39886;47.984;-1.586;2022-07-23T14:35:56;0.80;;;0.80;;
53977;SDS011;39886;47.984;-1.586;2022-07-23T14:38:24;0.73;;;0.73;;
53977;SDS011;39886;47.984;-1.586;2022-07-23T14:40:49;0.80;;;0.80;;
53977;SDS011;39886;47.984;-1.586;2022-07-23T14:43:15;0.80;;;0.80;;
53977;SDS011;39886;47.984;-1.586;2022-07-23T14:45:41;0.77;;;0.77;;
53977;SDS011;39886;47.984;-1.586;2022-07-23T14:48:06;1.08;;;0.90;;
53977;SDS011;39886;47.984;-1.586;2022-07-23T14:50:33;0.90;;;0.90;;
53977;SDS011;39886;47.984;-1.586;2022-07-23T14:52:58;0.70;;;0.70;;
53977;SDS011;39886;47.984;-1.586;2022-07-23T14:55:24;0.80;;;0.80;;
53977;SDS011;39886;47.984;-1.586;2022-07-23T14:57:50;0.98;;;0.88;;
53977;SDS011;39886;47.984;-1.586;2022-07-23T15:00:16;0.80;;;0.70;;
53977;SDS011;39886;47.984;-1.586;2022-07-23T15:02:42;0.80;;;0.80;;
53977;SDS011;39886;47.984;-1.586;2022-07-23T15:05:08;0.77;;;0.70;;
53977;SDS011;39886;47.984;-1.586;2022-07-23T15:07:34;0.90;;;0.90;;
53977;SDS011;39886;47.984;-1.586;2022-07-23T15:10:00;0.80;;;0.80;;
53977;SDS011;39886;47.984;-1.586;2022-07-23T15:12:25;0.88;;;0.80;;
53977;SDS011;39886;47.984;-1.586;2022-07-23T15:14:51;0.60;;;0.60;;
53977;SDS011;39886;47.984;-1.586;2022-07-23T15:17:17;0.63;;;0.63;;
53977;SDS011;39886;47.984;-1.586;2022-07-23T15:19:43;0.82;;;0.82;;
53977;SDS011;39886;47.984;-1.586;2022-07-23T15:22:08;0.70;;;0.70;;
53977;SDS011;39886;47.984;-1.586;2022-07-23T15:24:34;0.70;;;0.70;;
53977;SDS011;39886;47.984;-1.586;2022-07-23T15:27:00;0.80;;;0.80;;
53977;SDS011;39886;47.984;-1.586;2022-07-23T15:29:25;0.80;;;0.80;;
53977;SDS011;39886;47.984;-1.586;2022-07-23T15:31:51;0.70;;;0.70;;
53977;SDS011;39886;47.984;-1.586;2022-07-23T15:34:17;1.00;;;0.80;;